sensor_id;sensor_type;location;lat;lon;timestamp;P1;durP1;ratioP1;P2;durP2;ratioP2
64868;SDS011;51349;52.424;10.840;2023-04-05T00:02:42;5.60;;;4.57;;
64868;SDS011;51349;52.424;10.840;2023-04-05T00:07:43;6.17;;;4.60;;
64868;SDS011;51349;52.424;10.840;2023-04-05T00:12:47;4.50;;;3.70;;
64868;SDS011;51349;52.424;10.840;2023-04-05T00:17:47;6.03;;;3.67;;
64868;SDS011;51349;52.424;10.840;2023-04-05T00:22:48;6.20;;;4.00;;
64868;SDS011;51349;52.424;10.840;2023-04-05T00:27:49;4.00;;;3.53;;
64868;SDS011;51349;52.424;10.840;2023-04-05T00:32:53;4.13;;;3.73;;
64868;SDS011;51349;52.424;10.840;2023-04-05T00:37:54;4.70;;;3.67;;
64868;SDS011;51349;52.424;10.840;2023-04-05T00:42:55;4.83;;;3.43;;
64868;SDS011;51349;52.424;10.840;2023-04-05T00:47:55;4.90;;;3.77;;
64868;SDS011;51349;52.424;10.840;2023-04-05T00:52:56;6.17;;;3.40;;
64868;SDS011;51349;52.424;10.840;2023-04-05T00:57:57;5.60;;;2.87;;
64868;SDS011;51349;52.424;10.840;2023-04-05T01:02:59;4.53;;;3.30;;
64868;SDS011;51349;52.424;10.840;2023-04-05T01:13:20;3.47;;;3.17;;
64868;SDS011;51349;52.424;10.840;2023-04-05T01:18:27;3.90;;;3.13;;
64868;SDS011;51349;52.424;10.840;2023-04-05T01:34:19;3.17;;;2.87;;
64868;SDS011;51349;52.424;10.840;2023-04-05T01:39:26;3.97;;;3.10;;
64868;SDS011;51349;52.424;10.840;2023-04-05T01:44:28;3.73;;;3.10;;
64868;SDS011;51349;52.424;10.840;2023-04-05T01:49:29;3.20;;;2.87;;
64868;SDS011;51349;52.424;10.840;2023-04-05T01:54:30;3.23;;;2.90;;
64868;SDS011;51349;52.424;10.840;2023-04-05T01:59:31;3.80;;;3.40;;
64868;SDS011;51349;52.424;10.840;2023-04-05T02:04:31;6.03;;;3.77;;
64868;SDS011;51349;52.424;10.840;2023-04-05T02:09:32;4.93;;;3.33;;
64868;SDS011;51349;52.424;10.840;2023-04-05T02:14:33;5.87;;;3.73;;
64868;SDS011;51349;52.424;10.840;2023-04-05T02:19:34;4.10;;;3.53;;
64868;SDS011;51349;52.424;10.840;2023-04-05T02:24:39;15.90;;;6.07;;
64868;SDS011;51349;52.424;10.840;2023-04-05T02:29:40;4.63;;;3.60;;
64868;SDS011;51349;52.424;10.840;2023-04-05T02:34:41;5.73;;;3.70;;
64868;SDS011;51349;52.424;10.840;2023-04-05T02:39:42;5.37;;;3.63;;
64868;SDS011;51349;52.424;10.840;2023-04-05T02:44:43;4.27;;;3.40;;
64868;SDS011;51349;52.424;10.840;2023-04-05T02:49:43;3.40;;;3.10;;
64868;SDS011;51349;52.424;10.840;2023-04-05T02:54:44;5.73;;;3.43;;
64868;SDS011;51349;52.424;10.840;2023-04-05T02:59:45;4.27;;;3.67;;
64868;SDS011;51349;52.424;10.840;2023-04-05T03:04:46;3.97;;;3.40;;
64868;SDS011;51349;52.424;10.840;2023-04-05T03:09:47;4.27;;;3.17;;
64868;SDS011;51349;52.424;10.840;2023-04-05T03:14:48;4.50;;;3.30;;
64868;SDS011;51349;52.424;10.840;2023-04-05T03:19:48;4.00;;;3.00;;
64868;SDS011;51349;52.424;10.840;2023-04-05T03:24:49;5.03;;;3.10;;
64868;SDS011;51349;52.424;10.840;2023-04-05T03:29:51;8.00;;;3.80;;
64868;SDS011;51349;52.424;10.840;2023-04-05T03:34:52;3.60;;;3.30;;
64868;SDS011;51349;52.424;10.840;2023-04-05T03:39:52;3.03;;;2.70;;
64868;SDS011;51349;52.424;10.840;2023-04-05T03:44:53;3.43;;;3.00;;
64868;SDS011;51349;52.424;10.840;2023-04-05T03:49:53;3.20;;;2.90;;
64868;SDS011;51349;52.424;10.840;2023-04-05T03:54:54;3.80;;;3.20;;
64868;SDS011;51349;52.424;10.840;2023-04-05T03:59:55;3.13;;;2.80;;
64868;SDS011;51349;52.424;10.840;2023-04-05T04:04:55;4.70;;;2.93;;
64868;SDS011;51349;52.424;10.840;2023-04-05T04:09:56;3.67;;;3.07;;
64868;SDS011;51349;52.424;10.840;2023-04-05T04:14:57;4.37;;;2.63;;
64868;SDS011;51349;52.424;10.840;2023-04-05T04:19:58;3.23;;;2.90;;
64868;SDS011;51349;52.424;10.840;2023-04-05T04:24:59;3.93;;;2.80;;
64868;SDS011;51349;52.424;10.840;2023-04-05T04:30:10;4.30;;;3.10;;
64868;SDS011;51349;52.424;10.840;2023-04-05T04:35:12;3.53;;;3.10;;
64868;SDS011;51349;52.424;10.840;2023-04-05T04:40:20;3.97;;;3.03;;
64868;SDS011;51349;52.424;10.840;2023-04-05T04:45:21;3.27;;;2.97;;
64868;SDS011;51349;52.424;10.840;2023-04-05T04:50:22;6.43;;;3.07;;
64868;SDS011;51349;52.424;10.840;2023-04-05T04:55:23;3.97;;;3.00;;
64868;SDS011;51349;52.424;10.840;2023-04-05T05:00:25;3.93;;;3.17;;
64868;SDS011;51349;52.424;10.840;2023-04-05T05:05:25;4.80;;;2.77;;
64868;SDS011;51349;52.424;10.840;2023-04-05T05:10:26;3.40;;;3.10;;
64868;SDS011;51349;52.424;10.840;2023-04-05T05:15:27;5.17;;;3.07;;
64868;SDS011;51349;52.424;10.840;2023-04-05T05:20:27;3.70;;;2.97;;
64868;SDS011;51349;52.424;10.840;2023-04-05T05:25:28;3.57;;;3.27;;
64868;SDS011;51349;52.424;10.840;2023-04-05T05:30:30;4.70;;;3.10;;
64868;SDS011;51349;52.424;10.840;2023-04-05T05:35:35;3.67;;;3.37;;
64868;SDS011;51349;52.424;10.840;2023-04-05T05:40:37;4.33;;;3.50;;
64868;SDS011;51349;52.424;10.840;2023-04-05T05:45:37;5.13;;;3.80;;
64868;SDS011;51349;52.424;10.840;2023-04-05T05:50:38;4.80;;;3.87;;
64868;SDS011;51349;52.424;10.840;2023-04-05T05:55:39;6.33;;;4.00;;
64868;SDS011;51349;52.424;10.840;2023-04-05T06:00:40;3.63;;;3.33;;
64868;SDS011;51349;52.424;10.840;2023-04-05T06:05:49;6.80;;;4.23;;
64868;SDS011;51349;52.424;10.840;2023-04-05T06:10:50;6.07;;;4.80;;
64868;SDS011;51349;52.424;10.840;2023-04-05T06:15:51;8.63;;;5.37;;
64868;SDS011;51349;52.424;10.840;2023-04-05T06:20:53;7.07;;;4.60;;
64868;SDS011;51349;52.424;10.840;2023-04-05T06:25:55;7.50;;;4.73;;
64868;SDS011;51349;52.424;10.840;2023-04-05T06:30:57;8.87;;;5.03;;
64868;SDS011;51349;52.424;10.840;2023-04-05T06:35:58;8.23;;;5.53;;
64868;SDS011;51349;52.424;10.840;2023-04-05T06:40:59;8.17;;;5.37;;
64868;SDS011;51349;52.424;10.840;2023-04-05T06:46:00;7.93;;;4.37;;
64868;SDS011;51349;52.424;10.840;2023-04-05T06:51:01;4.77;;;4.27;;
64868;SDS011;51349;52.424;10.840;2023-04-05T06:56:02;4.27;;;3.77;;
64868;SDS011;51349;52.424;10.840;2023-04-05T07:01:03;7.70;;;4.60;;
64868;SDS011;51349;52.424;10.840;2023-04-05T07:06:05;4.83;;;3.90;;
64868;SDS011;51349;52.424;10.840;2023-04-05T07:11:06;5.27;;;4.17;;
64868;SDS011;51349;52.424;10.840;2023-04-05T07:16:06;4.97;;;4.20;;
64868;SDS011;51349;52.424;10.840;2023-04-05T07:21:07;5.70;;;4.10;;
64868;SDS011;51349;52.424;10.840;2023-04-05T07:26:07;6.63;;;4.10;;
64868;SDS011;51349;52.424;10.840;2023-04-05T07:31:08;5.87;;;4.07;;
64868;SDS011;51349;52.424;10.840;2023-04-05T07:36:09;7.93;;;5.83;;
64868;SDS011;51349;52.424;10.840;2023-04-05T07:41:10;8.23;;;4.03;;
64868;SDS011;51349;52.424;10.840;2023-04-05T07:46:10;6.27;;;3.90;;
64868;SDS011;51349;52.424;10.840;2023-04-05T07:51:11;5.07;;;3.37;;
64868;SDS011;51349;52.424;10.840;2023-04-05T07:56:12;3.93;;;3.53;;
64868;SDS011;51349;52.424;10.840;2023-04-05T08:01:13;4.83;;;3.73;;
64868;SDS011;51349;52.424;10.840;2023-04-05T08:06:14;4.37;;;3.43;;
64868;SDS011;51349;52.424;10.840;2023-04-05T08:11:18;5.57;;;3.40;;
64868;SDS011;51349;52.424;10.840;2023-04-05T08:16:20;3.73;;;2.83;;
64868;SDS011;51349;52.424;10.840;2023-04-05T08:21:21;5.50;;;2.57;;
64868;SDS011;51349;52.424;10.840;2023-04-05T08:26:22;6.93;;;3.20;;
64868;SDS011;51349;52.424;10.840;2023-04-05T08:31:23;6.57;;;2.97;;
64868;SDS011;51349;52.424;10.840;2023-04-05T08:36:23;3.97;;;2.70;;
64868;SDS011;51349;52.424;10.840;2023-04-05T08:41:25;2.33;;;2.20;;
64868;SDS011;51349;52.424;10.840;2023-04-05T08:46:40;3.53;;;2.60;;
64868;SDS011;51349;52.424;10.840;2023-04-05T08:51:43;3.97;;;2.70;;
64868;SDS011;51349;52.424;10.840;2023-04-05T08:56:43;4.37;;;2.93;;
64868;SDS011;51349;52.424;10.840;2023-04-05T09:01:47;2.90;;;2.60;;
64868;SDS011;51349;52.424;10.840;2023-04-05T09:06:50;3.10;;;2.60;;
64868;SDS011;51349;52.424;10.840;2023-04-05T09:11:53;3.30;;;2.50;;
64868;SDS011;51349;52.424;10.840;2023-04-05T09:16:57;4.43;;;2.57;;
64868;SDS011;51349;52.424;10.840;2023-04-05T09:27:03;6.00;;;2.73;;
64868;SDS011;51349;52.424;10.840;2023-04-05T09:32:06;2.90;;;2.70;;
64868;SDS011;51349;52.424;10.840;2023-04-05T09:37:17;2.87;;;2.50;;
64868;SDS011;51349;52.424;10.840;2023-04-05T09:42:21;2.67;;;2.47;;
64868;SDS011;51349;52.424;10.840;2023-04-05T09:47:23;3.13;;;2.90;;
64868;SDS011;51349;52.424;10.840;2023-04-05T09:52:25;3.00;;;2.70;;
64868;SDS011;51349;52.424;10.840;2023-04-05T09:57:28;3.10;;;2.80;;
64868;SDS011;51349;52.424;10.840;2023-04-05T10:02:36;2.73;;;2.53;;
64868;SDS011;51349;52.424;10.840;2023-04-05T10:07:38;2.87;;;2.60;;
64868;SDS011;51349;52.424;10.840;2023-04-05T10:12:40;3.33;;;3.00;;
64868;SDS011;51349;52.424;10.840;2023-04-05T10:28:09;2.70;;;2.50;;
64868;SDS011;51349;52.424;10.840;2023-04-05T10:38:29;2.75;;;2.55;;
64868;SDS011;51349;52.424;10.840;2023-04-05T10:43:42;3.92;;;2.78;;
64868;SDS011;51349;52.424;10.840;2023-04-05T10:48:53;3.20;;;2.90;;
64868;SDS011;51349;52.424;10.840;2023-04-05T10:54:10;3.30;;;2.88;;
64868;SDS011;51349;52.424;10.840;2023-04-05T10:59:11;3.30;;;3.00;;
64868;SDS011;51349;52.424;10.840;2023-04-05T11:04:14;4.30;;;2.70;;
64868;SDS011;51349;52.424;10.840;2023-04-05T11:14:21;3.13;;;2.90;;
64868;SDS011;51349;52.424;10.840;2023-04-05T11:24:55;3.13;;;2.92;;
64868;SDS011;51349;52.424;10.840;2023-04-05T11:29:58;4.05;;;2.90;;
64868;SDS011;51349;52.424;10.840;2023-04-05T11:35:03;3.03;;;2.83;;
64868;SDS011;51349;52.424;10.840;2023-04-05T11:40:24;3.00;;;2.80;;
64868;SDS011;51349;52.424;10.840;2023-04-05T11:45:29;3.25;;;3.00;;
64868;SDS011;51349;52.424;10.840;2023-04-05T11:50:31;3.88;;;3.10;;
64868;SDS011;51349;52.424;10.840;2023-04-05T11:55:32;3.08;;;2.88;;
64868;SDS011;51349;52.424;10.840;2023-04-05T12:00:33;3.35;;;3.03;;
64868;SDS011;51349;52.424;10.840;2023-04-05T12:05:43;3.20;;;2.90;;
64868;SDS011;51349;52.424;10.840;2023-04-05T12:10:54;4.32;;;3.10;;
64868;SDS011;51349;52.424;10.840;2023-04-05T12:15:56;3.90;;;3.00;;
64868;SDS011;51349;52.424;10.840;2023-04-05T12:20:58;3.10;;;2.80;;
64868;SDS011;51349;52.424;10.840;2023-04-05T12:26:05;3.45;;;3.00;;
64868;SDS011;51349;52.424;10.840;2023-04-05T12:31:09;3.85;;;2.72;;
64868;SDS011;51349;52.424;10.840;2023-04-05T12:36:10;4.03;;;2.70;;
64868;SDS011;51349;52.424;10.840;2023-04-05T12:41:14;3.20;;;3.00;;
64868;SDS011;51349;52.424;10.840;2023-04-05T12:46:15;3.40;;;3.10;;
64868;SDS011;51349;52.424;10.840;2023-04-05T12:51:16;4.13;;;2.88;;
64868;SDS011;51349;52.424;10.840;2023-04-05T12:56:17;2.70;;;2.50;;
64868;SDS011;51349;52.424;10.840;2023-04-05T13:01:18;3.22;;;2.92;;
64868;SDS011;51349;52.424;10.840;2023-04-05T13:06:18;3.15;;;2.85;;
64868;SDS011;51349;52.424;10.840;2023-04-05T13:11:19;3.88;;;3.00;;
64868;SDS011;51349;52.424;10.840;2023-04-05T13:16:20;3.22;;;2.92;;
64868;SDS011;51349;52.424;10.840;2023-04-05T13:21:21;3.13;;;2.83;;
64868;SDS011;51349;52.424;10.840;2023-04-05T13:26:21;3.40;;;3.10;;
64868;SDS011;51349;52.424;10.840;2023-04-05T13:31:22;3.30;;;3.00;;
64868;SDS011;51349;52.424;10.840;2023-04-05T13:36:23;3.17;;;2.88;;
64868;SDS011;51349;52.424;10.840;2023-04-05T13:41:23;3.15;;;2.85;;
64868;SDS011;51349;52.424;10.840;2023-04-05T13:46:25;3.13;;;2.92;;
64868;SDS011;51349;52.424;10.840;2023-04-05T13:51:28;3.47;;;3.17;;
64868;SDS011;51349;52.424;10.840;2023-04-05T13:56:33;4.53;;;3.05;;
64868;SDS011;51349;52.424;10.840;2023-04-05T14:01:33;3.92;;;2.85;;
64868;SDS011;51349;52.424;10.840;2023-04-05T14:06:34;3.22;;;2.58;;
64868;SDS011;51349;52.424;10.840;2023-04-05T14:11:35;4.40;;;2.67;;
64868;SDS011;51349;52.424;10.840;2023-04-05T14:16:36;3.13;;;2.92;;
64868;SDS011;51349;52.424;10.840;2023-04-05T14:21:37;3.67;;;2.70;;
64868;SDS011;51349;52.424;10.840;2023-04-05T14:26:38;3.10;;;2.80;;
64868;SDS011;51349;52.424;10.840;2023-04-05T14:31:38;3.03;;;2.58;;
64868;SDS011;51349;52.424;10.840;2023-04-05T14:36:39;3.17;;;2.70;;
64868;SDS011;51349;52.424;10.840;2023-04-05T14:41:40;3.40;;;3.00;;
64868;SDS011;51349;52.424;10.840;2023-04-05T14:46:41;2.75;;;2.42;;
64868;SDS011;51349;52.424;10.840;2023-04-05T14:51:41;3.72;;;2.90;;
64868;SDS011;51349;52.424;10.840;2023-04-05T14:56:42;3.40;;;2.80;;
64868;SDS011;51349;52.424;10.840;2023-04-05T15:01:43;3.00;;;2.70;;
64868;SDS011;51349;52.424;10.840;2023-04-05T15:06:45;3.25;;;2.90;;
64868;SDS011;51349;52.424;10.840;2023-04-05T15:11:46;3.00;;;2.80;;
64868;SDS011;51349;52.424;10.840;2023-04-05T15:16:47;2.60;;;2.40;;
64868;SDS011;51349;52.424;10.840;2023-04-05T15:21:48;3.58;;;2.80;;
64868;SDS011;51349;52.424;10.840;2023-04-05T15:26:49;2.90;;;2.70;;
64868;SDS011;51349;52.424;10.840;2023-04-05T15:31:50;2.53;;;2.33;;
64868;SDS011;51349;52.424;10.840;2023-04-05T15:36:50;3.13;;;2.60;;
64868;SDS011;51349;52.424;10.840;2023-04-05T15:41:52;2.70;;;2.40;;
64868;SDS011;51349;52.424;10.840;2023-04-05T15:46:53;2.65;;;2.42;;
64868;SDS011;51349;52.424;10.840;2023-04-05T15:51:53;3.28;;;2.88;;
64868;SDS011;51349;52.424;10.840;2023-04-05T15:56:54;2.88;;;2.63;;
64868;SDS011;51349;52.424;10.840;2023-04-05T16:01:58;3.08;;;2.78;;
64868;SDS011;51349;52.424;10.840;2023-04-05T16:06:59;3.08;;;2.53;;
64868;SDS011;51349;52.424;10.840;2023-04-05T16:12:00;3.53;;;2.65;;
64868;SDS011;51349;52.424;10.840;2023-04-05T16:17:01;3.13;;;2.85;;
64868;SDS011;51349;52.424;10.840;2023-04-05T16:22:02;2.83;;;2.63;;
64868;SDS011;51349;52.424;10.840;2023-04-05T16:27:02;2.58;;;2.38;;
64868;SDS011;51349;52.424;10.840;2023-04-05T16:32:03;3.67;;;2.70;;
64868;SDS011;51349;52.424;10.840;2023-04-05T16:37:04;2.80;;;2.60;;
64868;SDS011;51349;52.424;10.840;2023-04-05T16:42:05;3.90;;;2.78;;
64868;SDS011;51349;52.424;10.840;2023-04-05T16:47:06;2.65;;;2.45;;
64868;SDS011;51349;52.424;10.840;2023-04-05T16:52:07;2.70;;;2.50;;
64868;SDS011;51349;52.424;10.840;2023-04-05T16:57:08;3.03;;;2.22;;
64868;SDS011;51349;52.424;10.840;2023-04-05T17:02:09;2.50;;;2.30;;
64868;SDS011;51349;52.424;10.840;2023-04-05T17:07:12;2.58;;;2.38;;
64868;SDS011;51349;52.424;10.840;2023-04-05T17:12:13;3.00;;;2.60;;
64868;SDS011;51349;52.424;10.840;2023-04-05T17:17:14;2.75;;;2.55;;
64868;SDS011;51349;52.424;10.840;2023-04-05T17:22:15;2.83;;;2.50;;
64868;SDS011;51349;52.424;10.840;2023-04-05T17:27:15;3.03;;;2.45;;
64868;SDS011;51349;52.424;10.840;2023-04-05T17:32:16;3.33;;;3.03;;
64868;SDS011;51349;52.424;10.840;2023-04-05T17:37:17;3.90;;;3.60;;
64868;SDS011;51349;52.424;10.840;2023-04-05T17:42:17;3.75;;;3.45;;
64868;SDS011;51349;52.424;10.840;2023-04-05T17:47:18;3.22;;;2.92;;
64868;SDS011;51349;52.424;10.840;2023-04-05T17:52:19;3.15;;;2.85;;
64868;SDS011;51349;52.424;10.840;2023-04-05T17:57:21;3.70;;;3.40;;
64868;SDS011;51349;52.424;10.840;2023-04-05T18:02:22;6.15;;;3.70;;
64868;SDS011;51349;52.424;10.840;2023-04-05T18:07:22;4.15;;;3.20;;
64868;SDS011;51349;52.424;10.840;2023-04-05T18:12:23;4.43;;;4.03;;
64868;SDS011;51349;52.424;10.840;2023-04-05T18:17:24;3.90;;;3.50;;
64868;SDS011;51349;52.424;10.840;2023-04-05T18:22:25;4.60;;;4.20;;
64868;SDS011;51349;52.424;10.840;2023-04-05T18:27:26;4.65;;;4.10;;
64868;SDS011;51349;52.424;10.840;2023-04-05T18:32:27;9.98;;;7.47;;
64868;SDS011;51349;52.424;10.840;2023-04-05T18:37:28;21.60;;;14.40;;
64868;SDS011;51349;52.424;10.840;2023-04-05T18:42:29;12.27;;;10.00;;
64868;SDS011;51349;52.424;10.840;2023-04-05T18:47:31;7.70;;;6.77;;
64868;SDS011;51349;52.424;10.840;2023-04-05T18:52:32;6.90;;;6.30;;
64868;SDS011;51349;52.424;10.840;2023-04-05T18:57:34;8.77;;;7.90;;
64868;SDS011;51349;52.424;10.840;2023-04-05T19:02:35;6.67;;;4.87;;
64868;SDS011;51349;52.424;10.840;2023-04-05T19:07:35;4.27;;;3.87;;
64868;SDS011;51349;52.424;10.840;2023-04-05T19:12:36;5.57;;;4.50;;
64868;SDS011;51349;52.424;10.840;2023-04-05T19:17:37;5.93;;;4.47;;
64868;SDS011;51349;52.424;10.840;2023-04-05T19:22:38;8.17;;;5.27;;
64868;SDS011;51349;52.424;10.840;2023-04-05T19:27:38;8.10;;;5.20;;
64868;SDS011;51349;52.424;10.840;2023-04-05T19:32:40;5.67;;;4.10;;
64868;SDS011;51349;52.424;10.840;2023-04-05T19:37:40;4.70;;;3.70;;
64868;SDS011;51349;52.424;10.840;2023-04-05T19:42:41;4.47;;;4.07;;
64868;SDS011;51349;52.424;10.840;2023-04-05T19:47:46;4.40;;;4.00;;
64868;SDS011;51349;52.424;10.840;2023-04-05T19:52:47;5.10;;;3.90;;
64868;SDS011;51349;52.424;10.840;2023-04-05T19:57:48;5.30;;;4.10;;
64868;SDS011;51349;52.424;10.840;2023-04-05T20:02:48;6.57;;;3.53;;
64868;SDS011;51349;52.424;10.840;2023-04-05T20:07:50;4.13;;;3.57;;
64868;SDS011;51349;52.424;10.840;2023-04-05T20:12:50;3.87;;;3.47;;
64868;SDS011;51349;52.424;10.840;2023-04-05T20:17:51;7.07;;;4.07;;
64868;SDS011;51349;52.424;10.840;2023-04-05T20:22:53;8.97;;;4.90;;
64868;SDS011;51349;52.424;10.840;2023-04-05T20:27:53;5.83;;;5.00;;
64868;SDS011;51349;52.424;10.840;2023-04-05T20:32:55;5.43;;;4.63;;
64868;SDS011;51349;52.424;10.840;2023-04-05T20:37:55;4.83;;;4.33;;
64868;SDS011;51349;52.424;10.840;2023-04-05T20:42:56;7.57;;;5.00;;
64868;SDS011;51349;52.424;10.840;2023-04-05T20:47:57;6.87;;;5.20;;
64868;SDS011;51349;52.424;10.840;2023-04-05T20:52:59;6.47;;;5.50;;
64868;SDS011;51349;52.424;10.840;2023-04-05T20:58:04;6.73;;;4.87;;
64868;SDS011;51349;52.424;10.840;2023-04-05T21:03:05;6.67;;;4.40;;
64868;SDS011;51349;52.424;10.840;2023-04-05T21:08:08;5.53;;;4.80;;
64868;SDS011;51349;52.424;10.840;2023-04-05T21:13:10;6.17;;;4.63;;
64868;SDS011;51349;52.424;10.840;2023-04-05T21:18:10;8.23;;;4.83;;
64868;SDS011;51349;52.424;10.840;2023-04-05T21:23:11;4.97;;;4.47;;
64868;SDS011;51349;52.424;10.840;2023-04-05T21:28:12;6.63;;;4.60;;
64868;SDS011;51349;52.424;10.840;2023-04-05T21:33:15;6.07;;;4.43;;
64868;SDS011;51349;52.424;10.840;2023-04-05T21:38:16;7.77;;;5.00;;
64868;SDS011;51349;52.424;10.840;2023-04-05T21:43:17;5.77;;;5.17;;
64868;SDS011;51349;52.424;10.840;2023-04-05T21:48:17;4.83;;;4.33;;
64868;SDS011;51349;52.424;10.840;2023-04-05T21:53:18;5.17;;;4.67;;
64868;SDS011;51349;52.424;10.840;2023-04-05T21:58:19;7.43;;;4.83;;
64868;SDS011;51349;52.424;10.840;2023-04-05T22:03:19;5.40;;;4.50;;
64868;SDS011;51349;52.424;10.840;2023-04-05T22:08:20;4.70;;;4.17;;
64868;SDS011;51349;52.424;10.840;2023-04-05T22:13:21;5.17;;;3.77;;
64868;SDS011;51349;52.424;10.840;2023-04-05T22:18:21;3.93;;;3.57;;
64868;SDS011;51349;52.424;10.840;2023-04-05T22:23:24;3.83;;;3.53;;
64868;SDS011;51349;52.424;10.840;2023-04-05T22:28:25;4.20;;;3.77;;
64868;SDS011;51349;52.424;10.840;2023-04-05T22:33:26;4.87;;;4.07;;
64868;SDS011;51349;52.424;10.840;2023-04-05T22:38:29;3.90;;;3.50;;
64868;SDS011;51349;52.424;10.840;2023-04-05T22:43:30;4.57;;;3.40;;
64868;SDS011;51349;52.424;10.840;2023-04-05T22:48:31;3.83;;;3.50;;
64868;SDS011;51349;52.424;10.840;2023-04-05T22:53:31;6.70;;;3.60;;
64868;SDS011;51349;52.424;10.840;2023-04-05T22:58:32;3.87;;;3.47;;
64868;SDS011;51349;52.424;10.840;2023-04-05T23:03:36;3.30;;;3.00;;
64868;SDS011;51349;52.424;10.840;2023-04-05T23:08:37;2.63;;;2.43;;
64868;SDS011;51349;52.424;10.840;2023-04-05T23:13:40;2.87;;;2.67;;
64868;SDS011;51349;52.424;10.840;2023-04-05T23:18:41;3.07;;;2.77;;
64868;SDS011;51349;52.424;10.840;2023-04-05T23:23:42;3.13;;;2.60;;
64868;SDS011;51349;52.424;10.840;2023-04-05T23:28:42;3.47;;;2.87;;
64868;SDS011;51349;52.424;10.840;2023-04-05T23:33:43;3.40;;;2.50;;
64868;SDS011;51349;52.424;10.840;2023-04-05T23:38:44;3.30;;;2.63;;
64868;SDS011;51349;52.424;10.840;2023-04-05T23:43:47;2.87;;;2.47;;
64868;SDS011;51349;52.424;10.840;2023-04-05T23:48:48;3.20;;;2.87;;
64868;SDS011;51349;52.424;10.840;2023-04-05T23:53:49;3.37;;;2.90;;
64868;SDS011;51349;52.424;10.840;2023-04-05T23:58:50;4.23;;;2.60;;
